Prairie, Idaho
Current Conditions -  °F | °C
As of 5:18 AM on Friday 19 Dec 2014 (Local Time) from KMUO Reporting Station
Overcast Overcast  
Wind Chill: 30°   Ceiling: 7500
Heat Index: 39°   Visibility: 10mi
Dew Point: 32°   Wind: 16mph
Humidity: 75%   Direction: 110°ESE
Pressure: 30.06"   Gusts: NA
Location:  43.2609°N, 115.781°W
Report Text: KMUO 191218Z AUTO 11014KT 10SM BKN075 OVC095 04/00 A3006 RMK AO2
Loading
Personal Weather Stations






























Interactive Weather Map New forecast layout! Learn more

10-Day Weather Forecast

Advertisements
Track Severe Weather on mobile